Time,TemperatureF,DewpointF,PressureIn,WindDirection,WindDirectionDegrees,WindSpeedMPH,WindSpeedGustMPH,Humidity,HourlyPrecipIn,Conditions,Clouds,dailyrainin,SoftwareType,DateUTC
2013-01-10 00:00:00,54.8,53.7,30.55,NNW,345,0.0,0.0,96,0.00,,,0.00,VWS V14.01,2013-01-10 05:00:00,
2013-01-10 00:02:00,54.8,53.7,30.55,NNW,345,0.0,0.0,96,0.00,,,0.00,VWS V14.01,2013-01-10 05:02:00,
2013-01-10 00:04:00,54.8,53.7,30.55,NNW,345,0.0,0.0,96,0.00,,,0.00,VWS V14.01,2013-01-10 05:04:00,
2013-01-10 00:09:00,54.7,53.6,30.55,NNW,345,0.0,0.0,96,0.00,,,0.00,VWS V14.01,2013-01-10 05:09:00,
2013-01-10 00:14:00,54.5,53.4,30.55,NNW,345,0.0,0.0,96,0.00,,,0.00,VWS V14.01,2013-01-10 05:14:00,
2013-01-10 00:19:00,54.5,53.4,30.54,NNW,345,0.0,0.0,96,0.00,,,0.00,VWS V14.01,2013-01-10 05:19:00,
2013-01-10 00:24:00,54.4,53.3,30.54,NNW,345,0.0,0.0,96,0.00,,,0.00,VWS V14.01,2013-01-10 05:24:00,
2013-01-10 00:29:00,54.2,53.1,30.54,NNW,345,0.0,0.0,96,0.00,,,0.00,VWS V14.01,2013-01-10 05:29:00,
2013-01-10 00:34:00,54.1,53.0,30.54,NNW,345,0.0,0.0,96,0.00,,,0.00,VWS V14.01,2013-01-10 05:34:00,
2013-01-10 00:40:00,54.1,53.0,30.54,NNW,345,0.0,0.0,96,0.00,,,0.00,VWS V14.01,2013-01-10 05:40:00,
2013-01-10 00:46:00,53.8,52.7,30.54,North,0,0.0,0.0,96,0.00,,,0.00,VWS V14.01,2013-01-10 05:46:00,
2013-01-10 00:51:00,53.6,52.5,30.54,NNW,345,0.0,0.0,96,0.00,,,0.00,VWS V14.01,2013-01-10 05:51:00,
2013-01-10 00:56:00,53.8,53.0,30.54,NNW,345,0.0,0.0,97,0.00,,,0.00,VWS V14.01,2013-01-10 05:56:00,
2013-01-10 01:02:00,53.6,52.5,30.54,NNW,345,0.0,0.0,96,0.00,,,0.00,VWS V14.01,2013-01-10 06:02:00,
2013-01-10 01:07:00,53.6,52.8,30.54,NNW,345,0.0,0.0,97,0.00,,,0.00,VWS V14.01,2013-01-10 06:07:00,
2013-01-10 01:12:00,53.5,52.7,30.54,NNW,345,0.0,0.0,97,0.00,,,0.00,VWS V14.01,2013-01-10 06:12:00,
2013-01-10 01:17:00,53.5,52.7,30.54,NNW,345,0.0,0.0,97,0.00,,,0.00,VWS V14.01,2013-01-10 06:17:00,
2013-01-10 01:22:00,53.3,52.5,30.54,NNW,345,0.0,0.0,97,0.00,,,0.00,VWS V14.01,2013-01-10 06:22:00,
2013-01-10 01:27:00,53.5,52.7,30.54,NNW,345,0.0,0.0,97,0.00,,,0.00,VWS V14.01,2013-01-10 06:27:00,
2013-01-10 01:32:00,53.5,52.7,30.55,NNW,345,0.0,0.0,97,0.00,,,0.00,VWS V14.01,2013-01-10 06:32:00,
2013-01-10 01:37:00,53.5,52.7,30.55,NNW,345,0.0,0.0,97,0.00,,,0.00,VWS V14.01,2013-01-10 06:37:00,
2013-01-10 01:42:00,53.3,52.5,30.55,NNW,345,0.0,0.0,97,0.00,,,0.00,VWS V14.01,2013-01-10 06:42:00,
2013-01-10 01:47:00,53.2,52.4,30.55,NNW,345,0.0,0.0,97,0.00,,,0.00,VWS V14.01,2013-01-10 06:47:00,
2013-01-10 01:52:00,53.5,52.7,30.55,NNW,345,0.0,0.0,97,0.00,,,0.00,VWS V14.01,2013-01-10 06:52:00,
2013-01-10 01:57:00,53.6,52.8,30.55,NNW,345,0.0,0.0,97,0.00,,,0.00,VWS V14.01,2013-01-10 06:57:00,
2013-01-10 02:02:00,53.8,53.0,30.55,NNW,345,0.0,0.0,97,0.00,,,0.00,VWS V14.01,2013-01-10 07:02:00,
2013-01-10 02:07:00,53.8,53.0,30.55,NNW,345,0.0,0.0,97,0.00,,,0.00,VWS V14.01,2013-01-10 07:07:00,
2013-01-10 02:12:00,53.9,53.1,30.55,NNW,345,0.0,0.0,97,0.00,,,0.00,VWS V14.01,2013-01-10 07:12:00,
2013-01-10 02:17:00,53.9,53.1,30.55,NNW,345,0.0,0.0,97,0.00,,,0.00,VWS V14.01,2013-01-10 07:17:00,
2013-01-10 02:22:00,53.9,53.1,30.55,NNW,345,0.0,0.0,97,0.00,,,0.00,VWS V14.01,2013-01-10 07:22:00,
2013-01-10 02:27:00,54.1,53.3,30.55,NNW,345,0.0,0.0,97,0.00,,,0.00,VWS V14.01,2013-01-10 07:27:00,
2013-01-10 02:32:00,54.2,53.7,30.56,NNW,345,0.0,0.0,98,0.00,,,0.00,VWS V14.01,2013-01-10 07:32:00,
2013-01-10 02:37:00,54.5,54.0,30.56,NNW,345,0.0,0.0,98,0.00,,,0.00,VWS V14.01,2013-01-10 07:37:00,
2013-01-10 02:43:00,55.0,54.5,30.56,NNW,345,0.0,0.0,98,0.00,,,0.00,VWS V14.01,2013-01-10 07:43:00,
2013-01-10 02:48:00,55.4,54.8,30.56,NNW,345,0.0,0.0,98,0.00,,,0.00,VWS V14.01,2013-01-10 07:48:00,
2013-01-10 02:53:00,55.6,55.0,30.56,NNW,345,0.0,0.0,98,0.00,,,0.00,VWS V14.01,2013-01-10 07:53:00,
2013-01-10 02:58:00,55.7,55.2,30.56,NNW,345,0.0,0.0,98,0.00,,,0.00,VWS V14.01,2013-01-10 07:58:00,
2013-01-10 03:03:00,55.9,55.3,30.56,NNW,345,0.0,0.0,98,0.00,,,0.00,VWS V14.01,2013-01-10 08:03:00,
2013-01-10 03:08:00,56.0,55.5,30.56,NNW,345,0.0,0.0,98,0.00,,,0.00,VWS V14.01,2013-01-10 08:08:00,
2013-01-10 03:13:00,56.0,55.5,30.56,NNW,345,0.0,0.0,98,0.00,,,0.00,VWS V14.01,2013-01-10 08:13:00,
2013-01-10 03:18:00,56.0,55.5,30.55,NNW,345,0.0,0.0,98,0.00,,,0.00,VWS V14.01,2013-01-10 08:18:00,
2013-01-10 03:23:00,56.0,55.5,30.55,NNW,345,0.0,0.0,98,0.00,,,0.00,VWS V14.01,2013-01-10 08:23:00,
2013-01-10 03:28:00,56.2,55.7,30.55,NNW,345,0.0,0.0,98,0.00,,,0.00,VWS V14.01,2013-01-10 08:28:00,
2013-01-10 03:33:00,56.2,55.7,30.55,NNW,345,0.0,0.0,98,0.00,,,0.00,VWS V14.01,2013-01-10 08:33:00,
2013-01-10 03:38:00,56.2,55.7,30.55,NNW,345,0.0,0.0,98,0.00,,,0.00,VWS V14.01,2013-01-10 08:38:00,
2013-01-10 03:43:00,56.3,55.8,30.55,NNW,345,0.0,0.0,98,0.00,,,0.00,VWS V14.01,2013-01-10 08:43:00,
2013-01-10 03:49:00,56.3,55.8,30.55,NNW,345,0.0,0.0,98,0.00,,,0.00,VWS V14.01,2013-01-10 08:49:00,
2013-01-10 03:54:00,56.3,55.8,30.55,NNW,345,0.0,0.0,98,0.00,,,0.00,VWS V14.01,2013-01-10 08:54:00,
2013-01-10 03:59:00,56.3,55.8,30.55,NNW,345,0.0,0.0,98,0.00,,,0.00,VWS V14.01,2013-01-10 08:59:00,
2013-01-10 04:04:00,56.3,55.8,30.55,NNW,345,0.0,0.0,98,0.00,,,0.00,VWS V14.01,2013-01-10 09:04:00,
2013-01-10 04:09:00,56.2,55.7,30.55,NNW,345,0.0,0.0,98,0.00,,,0.00,VWS V14.01,2013-01-10 09:09:00,
2013-01-10 04:14:00,56.2,55.7,30.55,NNW,345,0.0,0.0,98,0.01,,,0.01,VWS V14.01,2013-01-10 09:14:00,
2013-01-10 04:19:00,56.2,55.7,30.54,NNW,345,0.0,0.0,98,0.01,,,0.01,VWS V14.01,2013-01-10 09:19:00,
2013-01-10 04:24:00,56.2,55.7,30.54,NNW,345,0.0,0.0,98,0.01,,,0.01,VWS V14.01,2013-01-10 09:24:00,
2013-01-10 04:29:00,56.2,55.7,30.54,NNW,345,0.0,0.0,98,0.01,,,0.01,VWS V14.01,2013-01-10 09:29:00,
2013-01-10 04:34:00,56.0,55.5,30.54,NNW,345,0.0,0.0,98,0.01,,,0.01,VWS V14.01,2013-01-10 09:34:00,
2013-01-10 04:39:00,55.9,55.3,30.54,NNW,345,0.0,0.0,98,0.01,,,0.01,VWS V14.01,2013-01-10 09:39:00,
2013-01-10 04:44:00,55.7,55.2,30.54,NNW,345,0.0,0.0,98,0.01,,,0.01,VWS V14.01,2013-01-10 09:44:00,
2013-01-10 04:50:00,55.7,55.2,30.54,NNW,345,0.0,0.0,98,0.01,,,0.01,VWS V14.01,2013-01-10 09:50:00,
2013-01-10 04:55:00,55.6,55.0,30.54,NNW,345,0.0,0.0,98,0.01,,,0.01,VWS V14.01,2013-01-10 09:55:00,
2013-01-10 05:00:00,55.6,55.0,30.54,NNW,345,0.0,0.0,98,0.01,,,0.01,VWS V14.01,2013-01-10 10:00:00,
2013-01-10 05:05:00,55.6,55.0,30.54,NNW,345,0.0,0.0,98,0.01,,,0.01,VWS V14.01,2013-01-10 10:05:00,
2013-01-10 05:10:00,55.6,55.0,30.54,NNW,345,0.0,0.0,98,0.01,,,0.01,VWS V14.01,2013-01-10 10:10:00,
2013-01-10 05:15:00,55.4,54.8,30.54,NNW,345,0.0,0.0,98,0.00,,,0.01,VWS V14.01,2013-01-10 10:15:00,
2013-01-10 05:20:00,55.4,54.8,30.55,NNW,345,0.0,0.0,98,0.00,,,0.01,VWS V14.01,2013-01-10 10:20:00,
2013-01-10 05:25:00,55.4,54.8,30.55,NNW,345,0.0,0.0,98,0.00,,,0.01,VWS V14.01,2013-01-10 10:25:00,
2013-01-10 05:30:00,55.4,54.8,30.55,NNW,345,0.0,0.0,98,0.00,,,0.01,VWS V14.01,2013-01-10 10:30:00,
2013-01-10 05:35:00,55.4,54.8,30.55,NNW,345,0.0,0.0,98,0.00,,,0.01,VWS V14.01,2013-01-10 10:35:00,
2013-01-10 05:40:00,55.4,54.8,30.55,NNW,345,0.0,0.0,98,0.00,,,0.01,VWS V14.01,2013-01-10 10:40:00,
2013-01-10 05:45:00,55.4,54.8,30.55,NNW,345,0.0,0.0,98,0.00,,,0.01,VWS V14.01,2013-01-10 10:45:00,
2013-01-10 05:51:00,55.4,54.8,30.56,NNW,345,0.0,0.0,98,0.00,,,0.01,VWS V14.01,2013-01-10 10:51:00,
2013-01-10 05:56:00,55.4,54.8,30.56,NNW,345,0.0,0.0,98,0.00,,,0.01,VWS V14.01,2013-01-10 10:56:00,
2013-01-10 06:01:00,55.4,54.8,30.56,NNW,345,0.0,0.0,98,0.00,,,0.01,VWS V14.01,2013-01-10 11:01:00,
2013-01-10 06:06:00,55.4,54.8,30.56,NNW,345,0.0,0.0,98,0.00,,,0.01,VWS V14.01,2013-01-10 11:06:00,
2013-01-10 06:11:00,55.4,54.8,30.56,NNW,345,0.0,0.0,98,0.00,,,0.01,VWS V14.01,2013-01-10 11:11:00,
2013-01-10 06:16:00,55.4,54.8,30.56,NNW,345,0.0,0.0,98,0.00,,,0.01,VWS V14.01,2013-01-10 11:16:00,
2013-01-10 06:21:00,55.4,54.8,30.56,NNW,345,0.0,0.0,98,0.00,,,0.01,VWS V14.01,2013-01-10 11:21:00,
2013-01-10 06:26:00,55.4,54.8,30.56,NNW,345,0.0,0.0,98,0.00,,,0.01,VWS V14.01,2013-01-10 11:26:00,
2013-01-10 06:31:00,55.3,54.8,30.56,NNW,345,0.0,0.0,98,0.00,,,0.01,VWS V14.01,2013-01-10 11:31:00,
2013-01-10 06:36:00,55.3,54.8,30.57,NNW,345,0.0,0.0,98,0.00,,,0.01,VWS V14.01,2013-01-10 11:36:00,
2013-01-10 06:41:00,55.1,54.5,30.57,NNW,345,0.0,0.0,98,0.00,,,0.01,VWS V14.01,2013-01-10 11:41:00,
2013-01-10 06:46:00,55.1,54.5,30.57,NNW,345,0.0,0.0,98,0.00,,,0.01,VWS V14.01,2013-01-10 11:46:00,
2013-01-10 06:51:00,55.0,54.5,30.57,NNW,345,0.0,0.0,98,0.00,,,0.01,VWS V14.01,2013-01-10 11:51:00,
2013-01-10 06:56:00,55.0,54.5,30.57,NNW,345,0.0,0.0,98,0.00,,,0.01,VWS V14.01,2013-01-10 11:56:00,
2013-01-10 07:01:00,54.8,54.2,30.57,NNW,345,0.0,0.0,98,0.00,,,0.01,VWS V14.01,2013-01-10 12:01:00,
2013-01-10 07:06:00,54.8,54.2,30.57,NNW,345,0.0,0.0,98,0.00,,,0.01,VWS V14.01,2013-01-10 12:06:00,
2013-01-10 07:11:00,54.8,54.2,30.57,NNW,345,0.0,0.0,98,0.00,,,0.01,VWS V14.01,2013-01-10 12:11:00,
2013-01-10 07:16:00,54.7,54.2,30.59,NNW,345,0.0,0.0,98,0.00,,,0.01,VWS V14.01,2013-01-10 12:16:00,
2013-01-10 07:22:00,54.7,54.2,30.59,NNW,345,0.0,0.0,98,0.00,,,0.01,VWS V14.01,2013-01-10 12:22:00,
2013-01-10 07:27:00,54.5,54.0,30.59,NNW,345,0.0,0.0,98,0.00,,,0.01,VWS V14.01,2013-01-10 12:27:00,
2013-01-10 07:32:00,54.5,54.0,30.59,NNW,345,0.0,0.0,98,0.00,,,0.01,VWS V14.01,2013-01-10 12:32:00,
2013-01-10 07:37:00,54.5,54.0,30.59,NNW,345,0.0,0.0,98,0.00,,,0.01,VWS V14.01,2013-01-10 12:37:00,
2013-01-10 07:42:00,54.4,53.8,30.59,NNW,345,0.0,0.0,98,0.00,,,0.01,VWS V14.01,2013-01-10 12:42:00,
2013-01-10 07:47:00,54.5,54.0,30.59,NNW,345,0.0,0.0,98,0.00,,,0.01,VWS V14.01,2013-01-10 12:47:00,
2013-01-10 07:52:00,54.5,54.0,30.59,NNW,345,0.0,0.0,98,0.00,,,0.01,VWS V14.01,2013-01-10 12:52:00,
2013-01-10 07:57:00,54.7,54.2,30.59,NNW,345,0.0,0.0,98,0.00,,,0.01,VWS V14.01,2013-01-10 12:57:00,
2013-01-10 08:02:00,54.7,54.2,30.60,NNW,345,0.0,0.0,98,0.00,,,0.01,VWS V14.01,2013-01-10 13:02:00,
2013-01-10 08:07:00,54.7,54.2,30.60,NNW,345,0.0,1.0,98,0.00,,,0.01,VWS V14.01,2013-01-10 13:07:00,
2013-01-10 08:12:00,54.8,54.2,30.60,NNW,345,0.0,0.0,98,0.00,,,0.01,VWS V14.01,2013-01-10 13:12:00,
2013-01-10 08:17:00,55.1,54.5,30.60,NW,306,0.0,4.0,98,0.00,,,0.01,VWS V14.01,2013-01-10 13:17:00,
2013-01-10 08:22:00,55.3,54.8,30.60,NW,306,0.0,0.0,98,0.00,,,0.01,VWS V14.01,2013-01-10 13:22:00,
2013-01-10 08:27:00,55.4,54.8,30.60,SSW,197,0.0,0.0,98,0.00,,,0.01,VWS V14.01,2013-01-10 13:27:00,
2013-01-10 08:32:00,55.7,55.2,30.60,SSW,197,0.0,0.0,98,0.00,,BKN003,0.01,VWS V14.01,2013-01-10 13:32:00,
2013-01-10 08:37:00,55.9,55.3,30.60,SSW,212,0.0,0.0,98,0.00,,BKN003,0.01,VWS V14.01,2013-01-10 13:37:00,
2013-01-10 08:42:00,56.3,55.8,30.60,NW,323,0.0,0.0,98,0.00,,BKN003,0.01,VWS V14.01,2013-01-10 13:42:00,
2013-01-10 08:48:00,56.6,56.0,30.60,NW,323,0.0,0.0,98,0.00,,BKN003,0.01,VWS V14.01,2013-01-10 13:48:00,
2013-01-10 08:53:00,56.9,56.6,30.60,NNW,328,0.0,0.0,99,0.00,,BKN003,0.01,VWS V14.01,2013-01-10 13:53:00,
2013-01-10 08:58:00,57.0,56.7,30.60,NNW,328,0.0,0.0,99,0.00,,BKN003,0.01,VWS V14.01,2013-01-10 13:58:00,
2013-01-10 09:03:00,57.2,56.9,30.61,NNW,328,0.0,0.0,99,0.00,,BKN,0.01,VWS V14.01,2013-01-10 14:03:00,
2013-01-10 09:08:00,57.6,57.3,30.61,NNW,328,0.0,0.0,99,0.00,,BKN,0.01,VWS V14.01,2013-01-10 14:08:00,
2013-01-10 09:13:00,58.0,57.7,30.61,NNW,328,0.0,0.0,99,0.00,,BKN,0.01,VWS V14.01,2013-01-10 14:13:00,
2013-01-10 09:18:00,58.3,58.0,30.60,NNW,328,0.0,0.0,99,0.00,,BKN,0.01,VWS V14.01,2013-01-10 14:18:00,
2013-01-10 09:23:00,58.6,58.3,30.60,NNW,328,0.0,0.0,99,0.00,,BKN,0.01,VWS V14.01,2013-01-10 14:23:00,
2013-01-10 09:28:00,58.9,58.6,30.60,NNW,328,0.0,0.0,99,0.00,,BKN,0.01,VWS V14.01,2013-01-10 14:28:00,
2013-01-10 09:33:00,59.3,59.0,30.60,NNW,328,0.0,0.0,99,0.00,,BKN,0.01,VWS V14.01,2013-01-10 14:33:00,
2013-01-10 09:38:00,59.3,59.0,30.60,NNW,328,0.0,0.0,99,0.00,,BKN,0.01,VWS V14.01,2013-01-10 14:38:00,
2013-01-10 09:44:00,59.6,59.3,30.60,NNW,328,0.0,0.0,99,0.00,,BKN,0.01,VWS V14.01,2013-01-10 14:44:00,
2013-01-10 09:49:00,59.9,59.6,30.60,NNW,328,0.0,0.0,99,0.00,,BKN,0.01,VWS V14.01,2013-01-10 14:49:00,
2013-01-10 09:54:00,59.9,59.3,30.60,NNW,328,0.0,0.0,98,0.00,,BKN,0.01,VWS V14.01,2013-01-10 14:54:00,
2013-01-10 09:59:00,60.1,59.5,30.60,NNW,333,0.0,0.0,98,0.00,,BKN,0.01,VWS V14.01,2013-01-10 14:59:00,
2013-01-10 10:04:00,60.4,59.8,30.60,NNW,333,0.0,0.0,98,0.00,,BKN040,0.01,VWS V14.01,2013-01-10 15:04:00,
2013-01-10 10:09:00,60.4,59.8,30.60,NNW,333,0.0,0.0,98,0.00,,BKN040,0.01,VWS V14.01,2013-01-10 15:09:00,
2013-01-10 10:14:00,60.5,59.9,30.60,NNW,333,0.0,0.0,98,0.00,,BKN040,0.01,VWS V14.01,2013-01-10 15:14:00,
2013-01-10 10:19:00,61.0,60.4,30.60,NNW,333,0.0,1.0,98,0.00,,BKN040,0.01,VWS V14.01,2013-01-10 15:19:00,
2013-01-10 10:24:00,61.2,60.6,30.60,NW,324,0.0,1.0,98,0.00,,BKN040,0.01,VWS V14.01,2013-01-10 15:24:00,
2013-01-10 10:29:00,61.6,60.7,30.60,NW,321,0.0,1.0,97,0.00,,BKN040,0.01,VWS V14.01,2013-01-10 15:29:00,
2013-01-10 10:34:00,62.0,60.8,30.60,NW,322,0.0,0.0,96,0.00,,BKN040,0.01,VWS V14.01,2013-01-10 15:34:00,
2013-01-10 10:39:00,62.4,61.0,30.60,NW,323,0.0,1.0,95,0.00,,BKN040,0.01,VWS V14.01,2013-01-10 15:39:00,
2013-01-10 10:45:00,62.7,60.7,30.60,WNW,298,0.0,0.0,93,0.00,,BKN040,0.01,VWS V14.01,2013-01-10 15:45:00,
2013-01-10 10:50:00,63.1,60.7,30.59,WNW,298,0.0,0.0,92,0.00,,BKN040,0.01,VWS V14.01,2013-01-10 15:50:00,
2013-01-10 10:55:00,63.4,60.7,30.59,WNW,298,0.0,1.0,91,0.00,,BKN040,0.01,VWS V14.01,2013-01-10 15:55:00,
2013-01-10 11:00:00,63.9,60.9,30.59,WNW,298,0.0,0.0,90,0.00,,BKN040,0.01,VWS V14.01,2013-01-10 16:00:00,
2013-01-10 11:05:00,64.2,60.3,30.59,NNW,334,0.0,0.0,87,0.00,,OVC035,0.01,VWS V14.01,2013-01-10 16:05:00,
2013-01-10 11:10:00,64.5,60.2,30.59,ENE,57,1.0,1.0,86,0.00,,OVC035,0.01,VWS V14.01,2013-01-10 16:10:00,
2013-01-10 11:15:00,65.0,59.7,30.59,WNW,283,0.0,1.0,83,0.00,,OVC035,0.01,VWS V14.01,2013-01-10 16:15:00,
2013-01-10 11:20:00,65.3,59.7,30.58,WNW,283,0.0,0.0,82,0.00,,OVC035,0.01,VWS V14.01,2013-01-10 16:20:00,
2013-01-10 11:25:00,65.8,60.2,30.58,North,358,0.0,0.0,82,0.00,,OVC035,0.01,VWS V14.01,2013-01-10 16:25:00,
2013-01-10 11:30:00,66.3,60.3,30.58,North,358,0.0,0.0,81,0.00,,OVC035,0.01,VWS V14.01,2013-01-10 16:30:00,
2013-01-10 11:35:00,66.9,59.8,30.57,WNW,287,0.0,0.0,78,0.00,,OVC035,0.01,VWS V14.01,2013-01-10 16:35:00,
2013-01-10 11:40:00,67.6,59.8,30.57,NW,314,1.0,7.0,76,0.00,,OVC035,0.01,VWS V14.01,2013-01-10 16:40:00,
2013-01-10 11:45:00,68.1,59.9,30.57,NW,319,1.0,1.0,75,0.00,,OVC035,0.01,VWS V14.01,2013-01-10 16:45:00,
2013-01-10 11:50:00,68.3,58.9,30.56,NNE,13,0.0,4.0,72,0.00,,OVC035,0.01,VWS V14.01,2013-01-10 16:50:00,
2013-01-10 11:55:00,68.4,58.6,30.56,NW,321,0.0,0.0,71,0.00,,OVC035,0.01,VWS V14.01,2013-01-10 16:55:00,
2013-01-10 12:00:00,69.1,58.9,30.56,NE,56,0.0,1.0,70,0.00,,OVC035,0.01,VWS V14.01,2013-01-10 17:00:00,
2013-01-10 12:05:00,69.6,59.0,30.55,NW,319,0.0,0.0,69,0.00,,BKN040,0.01,VWS V14.01,2013-01-10 17:05:00,
2013-01-10 12:10:00,70.1,58.7,30.55,North,357,0.0,2.0,67,0.00,,BKN040,0.01,VWS V14.01,2013-01-10 17:10:00,
2013-01-10 12:15:00,70.1,59.1,30.55,NNE,25,0.0,0.0,68,0.00,,BKN040,0.01,VWS V14.01,2013-01-10 17:15:00,
2013-01-10 12:20:00,70.3,59.2,30.55,North,358,0.0,1.0,68,0.00,,BKN040,0.01,VWS V14.01,2013-01-10 17:20:00,
2013-01-10 12:25:00,70.6,58.7,30.55,NE,49,2.0,3.0,66,0.00,,BKN040,0.01,VWS V14.01,2013-01-10 17:25:00,
2013-01-10 12:30:00,71.1,58.3,30.55,North,351,0.0,2.0,64,0.00,,BKN040,0.01,VWS V14.01,2013-01-10 17:30:00,
2013-01-10 12:35:00,71.3,58.1,30.54,WNW,294,0.0,3.0,63,0.00,,BKN040,0.01,VWS V14.01,2013-01-10 17:35:00,
2013-01-10 12:41:00,71.1,57.4,30.54,NE,46,0.0,1.0,62,0.00,,BKN040,0.01,VWS V14.01,2013-01-10 17:41:00,
2013-01-10 12:46:00,71.1,57.0,30.54,NNW,328,2.0,3.0,61,0.00,,BKN040,0.01,VWS V14.01,2013-01-10 17:46:00,
2013-01-10 12:51:00,70.8,56.2,30.54,ENE,66,0.0,0.0,60,0.00,,BKN040,0.01,VWS V14.01,2013-01-10 17:51:00,
2013-01-10 12:56:00,70.4,55.9,30.54,NE,37,0.0,3.0,60,0.00,,BKN040,0.01,VWS V14.01,2013-01-10 17:56:00,
2013-01-10 13:01:00,70.6,55.1,30.54,ENE,78,1.0,5.0,58,0.00,,OVC035,0.01,VWS V14.01,2013-01-10 18:01:00,
2013-01-10 13:06:00,70.9,55.4,30.54,NNW,341,0.0,3.0,58,0.00,,OVC035,0.01,VWS V14.01,2013-01-10 18:06:00,
2013-01-10 13:11:00,71.1,54.6,30.54,NW,306,0.0,0.0,56,0.00,,OVC035,0.01,VWS V14.01,2013-01-10 18:11:00,
2013-01-10 13:16:00,71.1,55.6,30.54,East,81,0.0,1.0,58,0.00,,OVC035,0.01,VWS V14.01,2013-01-10 18:16:00,
2013-01-10 13:21:00,70.9,54.9,30.54,NE,49,0.0,0.0,57,0.00,,OVC035,0.01,VWS V14.01,2013-01-10 18:21:00,
2013-01-10 13:26:00,70.6,55.1,30.54,NNE,29,0.0,0.0,58,0.00,,OVC035,0.01,VWS V14.01,2013-01-10 18:26:00,
2013-01-10 13:31:00,70.3,54.8,30.54,North,357,0.0,0.0,58,0.00,,OVC035,0.01,VWS V14.01,2013-01-10 18:31:00,
2013-01-10 13:36:00,70.1,54.2,30.54,North,1,0.0,2.0,57,0.00,,OVC035,0.01,VWS V14.01,2013-01-10 18:36:00,
2013-01-10 13:41:00,69.9,54.5,30.54,NW,324,0.0,0.0,58,0.00,,OVC035,0.01,VWS V14.01,2013-01-10 18:41:00,
2013-01-10 13:47:00,69.9,54.5,30.54,NNW,333,0.0,1.0,58,0.00,,OVC035,0.01,VWS V14.01,2013-01-10 18:47:00,
2013-01-10 13:52:00,70.1,55.1,30.54,NNW,330,0.0,0.0,59,0.00,,OVC035,0.01,VWS V14.01,2013-01-10 18:52:00,
2013-01-10 13:57:00,70.3,54.8,30.54,NNW,336,0.0,1.0,58,0.00,,OVC035,0.01,VWS V14.01,2013-01-10 18:57:00,
2013-01-10 14:02:00,70.3,54.8,30.54,ENE,67,0.0,1.0,58,0.00,,OVC045,0.01,VWS V14.01,2013-01-10 19:02:00,
2013-01-10 14:07:00,70.1,54.7,30.54,WNW,284,0.0,0.0,58,0.00,,OVC045,0.01,VWS V14.01,2013-01-10 19:07:00,
2013-01-10 14:12:00,70.1,54.7,30.54,NNE,20,0.0,0.0,58,0.00,,OVC045,0.01,VWS V14.01,2013-01-10 19:12:00,
2013-01-10 14:17:00,70.3,54.8,30.54,North,2,0.0,0.0,58,0.00,,OVC045,0.01,VWS V14.01,2013-01-10 19:17:00,
2013-01-10 14:22:00,70.4,54.9,30.54,ENE,75,1.0,1.0,58,0.00,,OVC045,0.01,VWS V14.01,2013-01-10 19:22:00,
2013-01-10 14:27:00,70.3,54.4,30.54,NNW,346,2.0,2.0,57,0.00,,OVC045,0.01,VWS V14.01,2013-01-10 19:27:00,
2013-01-10 14:32:00,70.1,54.2,30.55,ENE,68,0.0,0.0,57,0.00,,OVC045,0.01,VWS V14.01,2013-01-10 19:32:00,
2013-01-10 14:38:00,69.9,54.0,30.55,NNE,18,0.0,2.0,57,0.00,,OVC045,0.01,VWS V14.01,2013-01-10 19:38:00,
2013-01-10 14:43:00,69.9,54.5,30.55,NE,42,0.0,1.0,58,0.00,,OVC045,0.01,VWS V14.01,2013-01-10 19:43:00,
2013-01-10 14:48:00,69.9,54.5,30.55,NE,34,0.0,3.0,58,0.00,,OVC045,0.01,VWS V14.01,2013-01-10 19:48:00,
2013-01-10 14:53:00,70.1,54.7,30.55,ENE,60,0.0,1.0,58,0.00,,OVC045,0.01,VWS V14.01,2013-01-10 19:53:00,
2013-01-10 14:58:00,70.3,55.3,30.55,ENE,75,0.0,10.0,59,0.00,,OVC045,0.01,VWS V14.01,2013-01-10 19:58:00,
2013-01-10 15:03:00,69.9,54.5,30.54,ENE,70,1.0,4.0,58,0.00,,OVC045,0.01,VWS V14.01,2013-01-10 20:03:00,
2013-01-10 15:08:00,69.4,55.4,30.54,West,273,0.0,2.0,61,0.00,,OVC045,0.01,VWS V14.01,2013-01-10 20:08:00,
2013-01-10 15:14:00,68.4,54.9,30.54,NW,304,1.0,4.0,62,0.00,,OVC045,0.01,VWS V14.01,2013-01-10 20:14:00,
2013-01-10 15:19:00,67.4,54.8,30.55,NW,311,2.0,7.0,64,0.00,,OVC045,0.01,VWS V14.01,2013-01-10 20:19:00,
2013-01-10 15:24:00,67.1,54.5,30.55,East,96,0.0,1.0,64,0.00,,OVC045,0.01,VWS V14.01,2013-01-10 20:24:00,
2013-01-10 15:29:00,67.1,53.7,30.55,North,358,0.0,4.0,62,0.00,,OVC045,0.01,VWS V14.01,2013-01-10 20:29:00,
2013-01-10 15:34:00,67.3,53.8,30.54,NNW,338,2.0,5.0,62,0.00,,OVC045,0.01,VWS V14.01,2013-01-10 20:34:00,
2013-01-10 15:39:00,67.4,53.5,30.54,ENE,58,0.0,4.0,61,0.00,,OVC045,0.01,VWS V14.01,2013-01-10 20:39:00,
2013-01-10 15:44:00,67.4,53.9,30.54,East,84,1.0,3.0,62,0.00,,OVC045,0.01,VWS V14.01,2013-01-10 20:44:00,
2013-01-10 15:49:00,67.4,53.9,30.55,ENE,65,4.0,6.0,62,0.00,,OVC045,0.01,VWS V14.01,2013-01-10 20:49:00,
2013-01-10 15:54:00,67.1,54.1,30.55,ENE,76,2.0,3.0,63,0.00,,OVC045,0.01,VWS V14.01,2013-01-10 20:54:00,
2013-01-10 15:59:00,66.9,53.9,30.55,ENE,68,4.0,5.0,63,0.00,,OVC045,0.01,VWS V14.01,2013-01-10 20:59:00,
2013-01-10 16:04:00,66.6,54.5,30.55,East,82,0.0,2.0,65,0.00,,OVC045,0.01,VWS V14.01,2013-01-10 21:04:00,
2013-01-10 16:09:00,66.3,55.0,30.55,ENE,72,5.0,5.0,67,0.00,,OVC045,0.01,VWS V14.01,2013-01-10 21:09:00,
2013-01-10 16:14:00,65.6,55.2,30.55,NNW,347,0.0,0.0,69,0.00,,OVC045,0.01,VWS V14.01,2013-01-10 21:14:00,
2013-01-10 16:19:00,65.2,56.0,30.55,ENE,72,0.0,3.0,72,0.00,,OVC045,0.01,VWS V14.01,2013-01-10 21:19:00,
2013-01-10 16:24:00,64.7,56.6,30.55,ENE,62,1.0,4.0,75,0.00,,OVC045,0.01,VWS V14.01,2013-01-10 21:24:00,
2013-01-10 16:29:00,64.3,57.0,30.55,ENE,75,0.0,1.0,77,0.00,,OVC045,0.01,VWS V14.01,2013-01-10 21:29:00,
2013-01-10 16:34:00,63.9,57.3,30.55,NE,53,0.0,1.0,79,0.00,,-RA,0.01,VWS V14.01,2013-01-10 21:34:00,
2013-01-10 16:39:00,63.2,57.3,30.55,WNW,295,0.0,0.0,81,0.00,,-RA,0.01,VWS V14.01,2013-01-10 21:39:00,
2013-01-10 16:44:00,62.6,57.7,30.55,NW,304,0.0,0.0,84,0.00,,-RA,0.01,VWS V14.01,2013-01-10 21:44:00,
2013-01-10 16:49:00,62.3,57.7,30.55,North,4,0.0,0.0,85,0.00,,-RA,0.01,VWS V14.01,2013-01-10 21:49:00,
2013-01-10 16:54:00,62.0,57.8,30.55,East,88,0.0,5.0,86,0.00,,-RA,0.01,VWS V14.01,2013-01-10 21:54:00,
2013-01-10 17:00:00,61.6,58.0,30.55,North,0,0.0,1.0,88,0.00,,-RA,0.01,VWS V14.01,2013-01-10 22:00:00,
2013-01-10 17:05:00,61.3,58.3,30.54,NNW,340,0.0,0.0,90,0.00,,-RA,0.01,VWS V14.01,2013-01-10 22:05:00,
2013-01-10 17:10:00,61.0,58.0,30.54,NNW,348,0.0,0.0,90,0.01,,-RA,0.02,VWS V14.01,2013-01-10 22:10:00,
2013-01-10 17:16:00,60.5,58.2,30.54,North,11,0.0,0.0,92,0.01,,-RA,0.02,VWS V14.01,2013-01-10 22:16:00,
2013-01-10 17:21:00,60.2,58.2,30.54,NNW,337,0.0,1.0,93,0.02,,-RA,0.03,VWS V14.01,2013-01-10 22:21:00,
2013-01-10 17:26:00,60.1,58.1,30.54,East,79,0.0,0.0,93,0.02,,-RA,0.03,VWS V14.01,2013-01-10 22:26:00,
2013-01-10 17:31:00,60.1,58.4,30.54,North,8,0.0,0.0,94,0.02,,,0.03,VWS V14.01,2013-01-10 22:31:00,
2013-01-10 17:36:00,60.1,58.4,30.54,NNE,14,0.0,0.0,94,0.02,,,0.03,VWS V14.01,2013-01-10 22:36:00,
2013-01-10 17:41:00,60.1,58.4,30.54,North,358,0.0,0.0,94,0.02,,,0.03,VWS V14.01,2013-01-10 22:41:00,
2013-01-10 17:46:00,60.1,58.7,30.54,North,358,0.0,0.0,95,0.02,,,0.03,VWS V14.01,2013-01-10 22:46:00,
2013-01-10 17:51:00,60.1,58.7,30.54,NW,311,0.0,2.0,95,0.02,,,0.03,VWS V14.01,2013-01-10 22:51:00,
2013-01-10 17:56:00,60.1,58.7,30.54,NW,311,0.0,0.0,95,0.02,,,0.03,VWS V14.01,2013-01-10 22:56:00,
2013-01-10 18:01:00,60.1,58.7,30.54,NW,311,0.0,0.0,95,0.02,,,0.03,VWS V14.01,2013-01-10 23:01:00,
2013-01-10 18:06:00,60.1,58.7,30.54,NW,311,0.0,0.0,95,0.02,,,0.03,VWS V14.01,2013-01-10 23:06:00,
2013-01-10 18:11:00,60.1,58.7,30.54,NW,311,0.0,0.0,95,0.01,,,0.03,VWS V14.01,2013-01-10 23:11:00,
2013-01-10 18:16:00,60.1,58.7,30.54,NW,311,0.0,1.0,95,0.01,,,0.03,VWS V14.01,2013-01-10 23:16:00,
2013-01-10 18:22:00,60.1,58.7,30.54,NW,311,0.0,0.0,95,0.00,,,0.03,VWS V14.01,2013-01-10 23:22:00,
2013-01-10 18:27:00,60.1,58.7,30.54,NW,311,0.0,0.0,95,0.00,,,0.03,VWS V14.01,2013-01-10 23:27:00,
2013-01-10 18:32:00,60.1,58.7,30.55,NW,313,0.0,0.0,95,0.00,,,0.03,VWS V14.01,2013-01-10 23:32:00,
2013-01-10 18:37:00,60.2,59.1,30.55,NNW,345,0.0,0.0,96,0.00,,,0.03,VWS V14.01,2013-01-10 23:37:00,
2013-01-10 18:42:00,60.2,59.1,30.55,NNW,345,0.0,0.0,96,0.00,,,0.03,VWS V14.01,2013-01-10 23:42:00,
2013-01-10 18:47:00,60.2,59.1,30.55,North,352,0.0,0.0,96,0.00,,,0.03,VWS V14.01,2013-01-10 23:47:00,
2013-01-10 18:52:00,60.2,59.1,30.55,NW,318,0.0,0.0,96,0.00,,,0.03,VWS V14.01,2013-01-10 23:52:00,
2013-01-10 18:57:00,60.2,59.1,30.55,NW,318,0.0,0.0,96,0.00,,,0.03,VWS V14.01,2013-01-10 23:57:00,
2013-01-10 19:02:00,60.4,59.3,30.55,NW,319,0.0,0.0,96,0.00,,,0.03,VWS V14.01,2013-01-11 00:02:00,
2013-01-10 19:07:00,60.4,59.3,30.55,NW,319,0.0,1.0,96,0.00,,,0.03,VWS V14.01,2013-01-11 00:07:00,
2013-01-10 19:12:00,60.4,59.3,30.55,North,358,0.0,0.0,96,0.00,,,0.03,VWS V14.01,2013-01-11 00:12:00,
2013-01-10 19:17:00,60.4,59.3,30.56,North,358,0.0,0.0,96,0.00,,,0.03,VWS V14.01,2013-01-11 00:17:00,
2013-01-10 19:22:00,60.4,59.3,30.56,North,358,0.0,0.0,96,0.00,,,0.03,VWS V14.01,2013-01-11 00:22:00,
2013-01-10 19:27:00,60.2,59.1,30.56,North,358,0.0,0.0,96,0.00,,,0.03,VWS V14.01,2013-01-11 00:27:00,
2013-01-10 19:32:00,60.2,59.1,30.55,North,358,0.0,0.0,96,0.00,,,0.03,VWS V14.01,2013-01-11 00:32:00,
2013-01-10 19:37:00,60.2,59.1,30.55,North,358,0.0,0.0,96,0.00,,,0.03,VWS V14.01,2013-01-11 00:37:00,
2013-01-10 19:42:00,60.2,59.1,30.55,North,358,0.0,0.0,96,0.00,,,0.03,VWS V14.01,2013-01-11 00:42:00,
2013-01-10 19:47:00,60.2,59.1,30.56,North,0,0.0,0.0,96,0.00,,,0.03,VWS V14.01,2013-01-11 00:47:00,
2013-01-10 19:52:00,60.1,59.0,30.56,NW,309,0.0,0.0,96,0.00,,,0.03,VWS V14.01,2013-01-11 00:52:00,
2013-01-10 19:57:00,60.1,59.0,30.56,NW,309,0.0,0.0,96,0.00,,,0.03,VWS V14.01,2013-01-11 00:57:00,
2013-01-10 20:03:00,60.1,59.0,30.56,NW,324,0.0,0.0,96,0.00,,OVC005,0.03,VWS V14.01,2013-01-11 01:03:00,
2013-01-10 20:08:00,59.9,58.8,30.56,NW,324,0.0,0.0,96,0.00,,OVC005,0.03,VWS V14.01,2013-01-11 01:08:00,
2013-01-10 20:13:00,59.9,58.8,30.56,NW,324,0.0,0.0,96,0.00,,OVC005,0.03,VWS V14.01,2013-01-11 01:13:00,
2013-01-10 20:18:00,59.8,58.7,30.56,ENE,63,0.0,0.0,96,0.00,,OVC005,0.03,VWS V14.01,2013-01-11 01:18:00,
2013-01-10 20:23:00,59.8,58.7,30.56,North,1,0.0,0.0,96,0.00,,OVC005,0.03,VWS V14.01,2013-01-11 01:23:00,
2013-01-10 20:28:00,59.8,58.7,30.56,North,349,0.0,1.0,96,0.00,,OVC005,0.03,VWS V14.01,2013-01-11 01:28:00,
2013-01-10 20:34:00,59.6,58.5,30.55,ENE,59,0.0,0.0,96,0.00,,OVC005,0.03,VWS V14.01,2013-01-11 01:34:00,
2013-01-10 20:39:00,59.5,58.4,30.55,ENE,59,0.0,3.0,96,0.00,,OVC005,0.03,VWS V14.01,2013-01-11 01:39:00,
2013-01-10 20:44:00,59.2,57.8,30.55,North,353,1.0,1.0,95,0.00,,OVC005,0.03,VWS V14.01,2013-01-11 01:44:00,
2013-01-10 20:49:00,59.0,57.6,30.56,North,358,0.0,0.0,95,0.00,,OVC005,0.03,VWS V14.01,2013-01-11 01:49:00,
2013-01-10 20:54:00,58.9,57.5,30.56,ENE,58,0.0,0.0,95,0.00,,OVC005,0.03,VWS V14.01,2013-01-11 01:54:00,
2013-01-10 20:59:00,58.9,57.5,30.56,NNE,30,0.0,1.0,95,0.00,,OVC005,0.03,VWS V14.01,2013-01-11 01:59:00,
2013-01-10 21:04:00,58.7,57.3,30.56,North,3,0.0,0.0,95,0.00,,OVC010,0.03,VWS V14.01,2013-01-11 02:04:00,
2013-01-10 21:09:00,58.4,57.0,30.56,NE,51,0.0,0.0,95,0.00,,OVC010,0.03,VWS V14.01,2013-01-11 02:09:00,
2013-01-10 21:14:00,58.3,56.9,30.56,NNW,343,0.0,0.0,95,0.00,,OVC010,0.03,VWS V14.01,2013-01-11 02:14:00,
2013-01-10 21:19:00,58.1,56.7,30.54,NW,318,0.0,1.0,95,0.00,,OVC010,0.03,VWS V14.01,2013-01-11 02:19:00,
2013-01-10 21:24:00,57.8,56.4,30.54,NW,323,0.0,1.0,95,0.00,,OVC010,0.03,VWS V14.01,2013-01-11 02:24:00,
2013-01-10 21:29:00,57.6,56.2,30.54,NE,38,0.0,3.0,95,0.00,,OVC010,0.03,VWS V14.01,2013-01-11 02:29:00,
2013-01-10 21:34:00,57.3,55.9,30.54,NNE,30,0.0,0.0,95,0.00,,OVC010,0.03,VWS V14.01,2013-01-11 02:34:00,
2013-01-10 21:39:00,57.2,55.8,30.54,NE,54,0.0,0.0,95,0.00,,OVC010,0.03,VWS V14.01,2013-01-11 02:39:00,
2013-01-10 21:44:00,57.0,55.6,30.54,NW,311,0.0,0.0,95,0.00,,OVC010,0.03,VWS V14.01,2013-01-11 02:44:00,
2013-01-10 21:49:00,56.7,55.3,30.54,NE,44,1.0,1.0,95,0.00,,OVC010,0.03,VWS V14.01,2013-01-11 02:49:00,
2013-01-10 21:54:00,56.6,55.2,30.54,NE,44,0.0,0.0,95,0.00,,OVC010,0.03,VWS V14.01,2013-01-11 02:54:00,
2013-01-10 22:00:00,56.5,55.1,30.54,NNW,342,0.0,1.0,95,0.00,,OVC010,0.03,VWS V14.01,2013-01-11 03:00:00,
2013-01-10 22:05:00,56.3,54.9,30.54,North,358,0.0,0.0,95,0.00,,OVC010,0.03,VWS V14.01,2013-01-11 03:05:00,
2013-01-10 22:10:00,56.2,54.8,30.54,North,358,0.0,0.0,95,0.00,,OVC010,0.03,VWS V14.01,2013-01-11 03:10:00,
2013-01-10 22:15:00,56.0,54.6,30.54,North,358,0.0,0.0,95,0.00,,OVC010,0.03,VWS V14.01,2013-01-11 03:15:00,
2013-01-10 22:20:00,56.0,54.6,30.53,NNE,25,0.0,0.0,95,0.00,,OVC010,0.03,VWS V14.01,2013-01-11 03:20:00,
2013-01-10 22:25:00,55.9,54.5,30.53,North,351,0.0,0.0,95,0.00,,OVC010,0.03,VWS V14.01,2013-01-11 03:25:00,
2013-01-10 22:30:00,55.7,54.3,30.53,NNW,341,0.0,0.0,95,0.00,,OVC010,0.03,VWS V14.01,2013-01-11 03:30:00,
2013-01-10 22:35:00,55.6,54.2,30.52,North,353,0.0,0.0,95,0.00,,OVC010,0.03,VWS V14.01,2013-01-11 03:35:00,
2013-01-10 22:40:00,55.6,54.2,30.52,NW,313,0.0,0.0,95,0.00,,OVC010,0.03,VWS V14.01,2013-01-11 03:40:00,
2013-01-10 22:45:00,55.4,54.0,30.52,NW,313,0.0,0.0,95,0.00,,OVC010,0.03,VWS V14.01,2013-01-11 03:45:00,
2013-01-10 22:50:00,55.4,54.0,30.53,NW,313,0.0,0.0,95,0.00,,OVC010,0.03,VWS V14.01,2013-01-11 03:50:00,
2013-01-10 22:56:00,55.4,54.0,30.53,NW,314,0.0,0.0,95,0.00,,OVC010,0.03,VWS V14.01,2013-01-11 03:56:00,
2013-01-10 23:01:00,55.6,54.2,30.53,NW,314,0.0,0.0,95,0.00,,OVC005,0.03,VWS V14.01,2013-01-11 04:01:00,
2013-01-10 23:06:00,55.6,54.2,30.53,NW,319,0.0,0.0,95,0.00,,OVC005,0.03,VWS V14.01,2013-01-11 04:06:00,
2013-01-10 23:11:00,55.6,54.2,30.53,NW,319,0.0,0.0,95,0.00,,OVC005,0.03,VWS V14.01,2013-01-11 04:11:00,
2013-01-10 23:16:00,55.6,54.2,30.53,NW,319,0.0,0.0,95,0.00,,OVC005,0.03,VWS V14.01,2013-01-11 04:16:00,
2013-01-10 23:21:00,55.6,54.2,30.52,NW,319,0.0,0.0,95,0.00,,OVC005,0.03,VWS V14.01,2013-01-11 04:21:00,
2013-01-10 23:26:00,55.6,54.2,30.52,NW,319,0.0,0.0,95,0.00,,OVC005,0.03,VWS V14.01,2013-01-11 04:26:00,
2013-01-10 23:31:00,55.4,54.0,30.52,NW,319,0.0,0.0,95,0.00,,OVC005,0.03,VWS V14.01,2013-01-11 04:31:00,
2013-01-10 23:36:00,55.4,54.0,30.52,NW,319,0.0,0.0,95,0.00,,OVC005,0.03,VWS V14.01,2013-01-11 04:36:00,
2013-01-10 23:41:00,55.3,53.9,30.52,NW,319,0.0,0.0,95,0.00,,OVC005,0.03,VWS V14.01,2013-01-11 04:41:00,
2013-01-10 23:46:00,55.3,53.9,30.52,NW,319,0.0,0.0,95,0.00,,OVC005,0.03,VWS V14.01,2013-01-11 04:46:00,
2013-01-10 23:51:00,55.3,53.9,30.52,NW,319,0.0,0.0,95,0.00,,OVC005,0.03,VWS V14.01,2013-01-11 04:51:00,
2013-01-10 23:56:00,55.3,53.9,30.52,NW,319,0.0,1.0,95,0.00,,OVC005,0.03,VWS V14.01,2013-01-11 04:56:00,